Time;durP1;ratioP1;P1;durP2;ratioP2;P2;SDS_P1;SDS_P2;PMS_P1;PMS_P2;Temp;Humidity;BMP_temperature;BMP_pressure;BME280_temperature;BME280_humidity;BME280_pressure;Samples;Min_cycle;Max_cycle;Signal;HPM_P1;HPM_P2
2024/01/01 00:01:51;;;;;;;144.60;63.40;;;18.70;70.70;;;;;;4865635;28;89681;-39
2024/01/01 00:04:16;;;;;;;139.15;63.15;;;18.70;70.60;;;;;;4880948;28;88711;-39
2024/01/01 00:06:42;;;;;;;138.15;63.83;;;18.70;70.50;;;;;;4870443;28;89779;-39
2024/01/01 00:09:08;;;;;;;141.68;64.05;;;18.70;70.60;;;;;;4878259;28;90366;-39
2024/01/01 00:11:35;;;;;;;146.55;63.67;;;18.70;70.60;;;;;;4873058;28;90860;-39
2024/01/01 00:14:01;;;;;;;137.93;63.10;;;18.70;70.50;;;;;;4881914;28;90478;-39
2024/01/01 00:16:26;;;;;;;137.82;62.90;;;18.70;70.00;;;;;;4878839;28;89302;-40
2024/01/01 00:18:52;;;;;;;137.98;62.22;;;18.70;70.30;;;;;;4874552;28;91286;-39
2024/01/01 00:21:18;;;;;;;135.88;62.28;;;18.70;70.50;;;;;;4877897;28;89692;-38
2024/01/01 00:23:43;;;;;;;137.70;62.10;;;18.70;70.10;;;;;;4884030;28;90626;-39
2024/01/01 00:26:09;;;;;;;137.60;62.22;;;18.70;70.20;;;;;;4881208;28;89447;-39
2024/01/01 00:28:35;;;;;;;134.43;60.90;;;18.70;70.20;;;;;;4880559;28;89457;-39
2024/01/01 00:31:00;;;;;;;139.80;62.17;;;18.70;70.10;;;;;;4875191;28;89734;-44
2024/01/01 00:33:26;;;;;;;139.68;61.45;;;18.70;70.10;;;;;;4872406;28;90500;-44
2024/01/01 00:35:52;;;;;;;135.52;60.55;;;18.70;69.40;;;;;;4877914;28;91598;-43
2024/01/01 00:38:17;;;;;;;138.52;60.45;;;18.60;69.70;;;;;;4875412;28;89974;-47
2024/01/01 00:40:43;;;;;;;136.98;60.55;;;18.60;69.20;;;;;;4877675;28;90184;-44
2024/01/01 00:43:10;;;;;;;134.20;60.30;;;18.50;69.40;;;;;;4886112;28;90159;-43
2024/01/01 00:45:36;;;;;;;135.60;59.60;;;18.50;68.70;;;;;;4878874;28;89304;-42
2024/01/01 00:48:01;;;;;;;132.77;59.63;;;18.50;68.50;;;;;;4885335;28;89558;-43
2024/01/01 00:50:27;;;;;;;134.65;59.40;;;18.50;68.60;;;;;;4879045;28;89238;-43
2024/01/01 00:52:53;;;;;;;135.25;59.17;;;18.50;68.40;;;;;;4876788;28;89074;-44
2024/01/01 00:55:18;;;;;;;136.15;59.67;;;18.40;68.10;;;;;;4877469;28;89581;-44
2024/01/01 00:57:44;;;;;;;133.25;59.08;;;18.40;68.60;;;;;;4880757;28;89329;-43
2024/01/01 01:00:11;;;;;;;132.98;59.42;;;18.40;68.50;;;;;;4880941;28;90385;-43
2024/01/01 01:02:36;;;;;;;131.93;59.20;;;18.40;68.20;;;;;;4879832;28;92542;-42
2024/01/01 01:05:02;;;;;;;133.00;58.67;;;18.30;68.30;;;;;;4879835;28;89916;-43
2024/01/01 01:07:30;;;;;;;132.63;59.30;;;18.40;68.60;;;;;;4882429;28;89223;-48
2024/01/01 01:09:56;;;;;;;135.75;59.03;;;18.30;68.50;;;;;;4882346;28;89501;-43
2024/01/01 01:12:22;;;;;;;134.38;59.10;;;18.30;68.30;;;;;;4882246;28;89426;-42
2024/01/01 01:14:48;;;;;;;132.10;58.40;;;18.20;68.30;;;;;;4884509;28;89040;-42
2024/01/01 01:17:14;;;;;;;133.63;58.35;;;18.20;68.20;;;;;;4880835;28;89044;-42
2024/01/01 01:19:40;;;;;;;131.18;58.45;;;18.20;68.20;;;;;;4881749;28;89386;-43
2024/01/01 01:22:05;;;;;;;131.88;57.85;;;18.20;68.20;;;;;;4884106;28;89188;-43
2024/01/01 01:24:31;;;;;;;132.43;58.65;;;18.20;68.00;;;;;;4884710;28;89856;-44
2024/01/01 01:26:57;;;;;;;131.32;58.65;;;18.10;68.20;;;;;;4882078;28;89492;-43
2024/01/01 01:29:24;;;;;;;131.90;58.40;;;18.10;68.30;;;;;;4882128;28;89615;-42
2024/01/01 01:31:50;;;;;;;130.13;57.80;;;18.10;68.30;;;;;;4884001;28;89445;-42
2024/01/01 01:34:15;;;;;;;132.30;58.38;;;18.10;68.30;;;;;;4883422;28;89788;-42
2024/01/01 01:36:41;;;;;;;131.50;58.10;;;18.10;68.20;;;;;;4879690;28;89257;-42
2024/01/01 01:39:07;;;;;;;130.93;57.80;;;18.00;68.20;;;;;;4883067;28;89156;-42
2024/01/01 01:41:32;;;;;;;133.45;58.40;;;18.00;68.30;;;;;;4880534;28;89026;-45
2024/01/01 01:43:58;;;;;;;134.65;58.20;;;18.00;68.30;;;;;;4879931;28;89284;-42
2024/01/01 01:46:27;;;;;;;130.02;57.30;;;18.00;68.30;;;;;;4886983;28;89393;-42
2024/01/01 01:48:53;;;;;;;129.60;57.50;;;17.90;68.20;;;;;;4881447;28;90486;-43
2024/01/01 01:51:19;;;;;;;129.25;57.60;;;17.90;68.30;;;;;;4880049;28;90851;-44
2024/01/01 01:53:46;;;;;;;130.95;57.92;;;17.90;68.20;;;;;;4885547;28;89765;-45
2024/01/01 01:56:14;;;;;;;132.10;58.03;;;17.90;68.40;;;;;;4884464;28;89737;-43
2024/01/01 01:58:40;;;;;;;131.55;58.10;;;17.80;68.40;;;;;;4887515;28;89815;-43
2024/01/01 02:01:07;;;;;;;129.57;57.42;;;17.80;68.10;;;;;;4881720;28;89527;-44
2024/01/01 02:03:33;;;;;;;129.52;57.55;;;17.80;68.40;;;;;;4880969;28;89480;-43
2024/01/01 02:05:59;;;;;;;132.48;57.60;;;17.80;68.20;;;;;;4881984;28;88811;-43
2024/01/01 02:08:25;;;;;;;129.45;57.28;;;17.70;68.40;;;;;;4881460;28;89527;-46
2024/01/01 02:10:50;;;;;;;132.02;57.85;;;17.70;68.60;;;;;;4882064;28;89443;-44
2024/01/01 02:13:30;;;;;;;128.55;57.13;;;17.70;68.50;;;;;;4877107;28;90015;-45
2024/01/01 02:15:56;;;;;;;130.15;57.22;;;17.70;68.60;;;;;;4884723;28;89397;-46
2024/01/01 02:18:22;;;;;;;130.95;57.38;;;17.70;68.70;;;;;;4883204;28;89331;-43
2024/01/01 02:20:48;;;;;;;129.32;57.28;;;17.70;68.60;;;;;;4883344;28;89144;-44
2024/01/01 02:23:20;;;;;;;128.35;57.35;;;17.60;68.70;;;;;;4883334;28;89210;-45
2024/01/01 02:25:46;;;;;;;135.27;57.70;;;17.60;68.60;;;;;;4881171;28;89922;-49
2024/01/01 02:28:13;;;;;;;128.80;57.03;;;17.60;68.60;;;;;;4882990;28;91785;-45
2024/01/01 02:30:39;;;;;;;128.60;57.15;;;17.60;68.70;;;;;;4881541;28;88998;-44
2024/01/01 02:33:09;;;;;;;131.85;57.42;;;17.60;68.60;;;;;;4884693;28;89926;-42
2024/01/01 02:35:35;;;;;;;130.00;57.25;;;17.60;68.80;;;;;;4881328;28;90286;-48
2024/01/01 02:38:04;;;;;;;127.72;57.13;;;17.60;68.80;;;;;;4885465;28;90732;-42
2024/01/01 02:40:32;;;;;;;126.50;56.40;;;17.50;68.60;;;;;;4881326;28;91123;-46
2024/01/01 02:43:00;;;;;;;131.13;57.28;;;17.50;68.70;;;;;;4881000;28;89926;-45
2024/01/01 02:45:30;;;;;;;131.25;57.25;;;17.50;68.80;;;;;;4880300;28;89845;-47
2024/01/01 02:47:55;;;;;;;128.70;57.20;;;17.50;68.60;;;;;;4885567;28;89737;-42
2024/01/01 02:50:22;;;;;;;129.55;56.80;;;17.40;68.80;;;;;;4883142;28;89691;-44
2024/01/01 02:52:48;;;;;;;127.35;56.78;;;17.40;68.90;;;;;;4882522;28;89228;-46
2024/01/01 02:55:15;;;;;;;128.63;57.25;;;17.40;68.80;;;;;;4882196;28;88794;-46
2024/01/01 02:57:40;;;;;;;128.68;56.58;;;17.40;69.00;;;;;;4883535;28;89552;-46
2024/01/01 03:00:09;;;;;;;128.20;56.58;;;17.40;68.90;;;;;;4886881;28;89889;-44
2024/01/01 03:02:38;;;;;;;127.18;56.58;;;17.30;68.80;;;;;;4876971;28;90877;-45
2024/01/01 03:05:05;;;;;;;127.72;56.50;;;17.40;69.10;;;;;;4884100;28;89129;-45
2024/01/01 03:07:32;;;;;;;128.98;56.92;;;17.30;68.70;;;;;;4882450;28;89258;-43
2024/01/01 03:09:57;;;;;;;129.52;56.67;;;17.30;69.00;;;;;;4884871;28;89980;-44
2024/01/01 03:12:23;;;;;;;129.50;57.03;;;17.30;68.90;;;;;;4882593;28;89743;-44
2024/01/01 03:14:49;;;;;;;126.60;56.53;;;17.20;68.90;;;;;;4884232;28;89027;-42
2024/01/01 03:17:15;;;;;;;128.38;56.13;;;17.30;69.00;;;;;;4881097;28;90361;-43
2024/01/01 03:19:40;;;;;;;128.45;56.58;;;17.30;68.90;;;;;;4881371;28;88923;-46
2024/01/01 03:22:06;;;;;;;131.07;56.47;;;17.20;69.00;;;;;;4881486;28;89363;-43
2024/01/01 03:24:32;;;;;;;128.30;56.22;;;17.20;68.80;;;;;;4883268;28;90709;-43
2024/01/01 03:26:57;;;;;;;127.75;56.67;;;17.20;69.00;;;;;;4882024;28;90954;-44
2024/01/01 03:29:23;;;;;;;129.18;57.15;;;17.20;69.00;;;;;;4878509;28;89906;-43
2024/01/01 03:31:48;;;;;;;128.45;56.72;;;17.20;69.00;;;;;;4886397;28;89691;-47
2024/01/01 03:34:14;;;;;;;127.07;56.45;;;17.10;68.70;;;;;;4883190;28;89377;-47
2024/01/01 03:36:40;;;;;;;128.02;56.38;;;17.10;69.10;;;;;;4883734;28;89647;-44
2024/01/01 03:39:05;;;;;;;129.18;56.70;;;17.10;68.80;;;;;;4881128;28;88909;-46
2024/01/01 03:41:31;;;;;;;127.07;56.33;;;17.10;68.80;;;;;;4878078;28;89739;-44
2024/01/01 03:43:57;;;;;;;127.35;56.25;;;17.10;68.90;;;;;;4877777;28;89108;-46
2024/01/01 03:46:23;;;;;;;128.23;56.35;;;17.10;69.00;;;;;;4881356;28;90089;-48
2024/01/01 03:48:48;;;;;;;127.75;56.70;;;17.10;69.00;;;;;;4882874;28;91087;-48
2024/01/01 03:51:14;;;;;;;129.68;57.03;;;17.00;68.80;;;;;;4883079;28;90395;-44
2024/01/01 03:53:40;;;;;;;127.35;55.85;;;17.00;68.70;;;;;;4883401;28;89424;-46
2024/01/01 03:56:07;;;;;;;129.10;56.60;;;17.00;68.80;;;;;;4884862;28;89559;-46
2024/01/01 03:58:32;;;;;;;128.25;56.33;;;17.00;68.70;;;;;;4879386;28;89798;-43
2024/01/01 04:00:58;;;;;;;125.07;55.70;;;17.00;68.70;;;;;;4881389;28;89158;-45
2024/01/01 04:03:23;;;;;;;126.70;56.20;;;17.00;68.70;;;;;;4883840;28;89179;-44
2024/01/01 04:05:49;;;;;;;126.15;55.63;;;17.00;68.80;;;;;;4880543;28;89289;-43
2024/01/01 04:08:15;;;;;;;127.20;55.90;;;16.90;68.30;;;;;;4882070;28;89131;-42
2024/01/01 04:10:40;;;;;;;127.13;56.30;;;16.90;68.90;;;;;;4878936;28;89656;-43
2024/01/01 04:13:06;;;;;;;126.22;56.00;;;16.90;68.80;;;;;;4880628;28;89875;-46
2024/01/01 04:15:32;;;;;;;129.02;56.42;;;16.90;68.60;;;;;;4882869;28;90641;-45
2024/01/01 04:17:57;;;;;;;125.45;56.13;;;16.90;69.50;;;;;;4881198;28;90804;-42
2024/01/01 04:20:23;;;;;;;127.60;56.15;;;16.90;68.70;;;;;;4882276;28;90311;-44
2024/01/01 04:22:51;;;;;;;127.97;56.22;;;16.90;68.90;;;;;;4884394;28;90097;-42
2024/01/01 04:25:18;;;;;;;126.90;56.20;;;16.80;68.70;;;;;;4877627;28;90093;-42
2024/01/01 04:27:44;;;;;;;125.82;56.28;;;16.80;68.80;;;;;;4881965;28;89347;-45
2024/01/01 04:30:10;;;;;;;128.15;56.22;;;16.80;68.70;;;;;;4881094;28;89864;-42
2024/01/01 04:32:36;;;;;;;126.28;56.28;;;16.80;68.70;;;;;;4881648;28;89291;-43
2024/01/01 04:35:05;;;;;;;126.20;56.25;;;16.80;68.80;;;;;;4885569;28;90816;-42
2024/01/01 04:37:30;;;;;;;126.68;55.85;;;16.80;68.70;;;;;;4880579;28;89833;-42
2024/01/01 04:39:56;;;;;;;126.25;56.13;;;16.70;68.50;;;;;;4876518;28;95035;-44
2024/01/01 04:42:22;;;;;;;127.68;56.53;;;16.80;68.80;;;;;;4878560;28;89100;-42
2024/01/01 04:44:47;;;;;;;128.18;56.40;;;16.70;68.50;;;;;;4880285;28;88935;-42
2024/01/01 04:47:13;;;;;;;126.75;56.03;;;16.70;68.70;;;;;;4882814;28;89457;-42
2024/01/01 04:49:41;;;;;;;126.63;56.25;;;16.70;68.60;;;;;;4877737;28;90163;-42
2024/01/01 04:52:06;;;;;;;126.60;56.13;;;16.70;68.70;;;;;;4879796;28;89737;-42
2024/01/01 04:54:32;;;;;;;126.50;56.42;;;16.70;68.70;;;;;;4884199;28;89554;-42
2024/01/01 04:56:57;;;;;;;126.18;56.15;;;16.70;68.70;;;;;;4881506;28;88939;-42
2024/01/01 04:59:23;;;;;;;125.53;56.20;;;16.70;68.70;;;;;;4885672;28;89485;-42
2024/01/01 05:01:49;;;;;;;126.55;56.10;;;16.70;68.60;;;;;;4881206;28;89712;-42
2024/01/01 05:04:15;;;;;;;125.47;55.90;;;16.60;68.50;;;;;;4884531;28;90828;-43
2024/01/01 05:06:40;;;;;;;123.53;55.25;;;16.60;68.60;;;;;;4886398;28;90645;-42
2024/01/01 05:09:06;;;;;;;126.25;55.88;;;16.60;68.60;;;;;;4881042;28;88992;-42
2024/01/01 05:11:33;;;;;;;126.28;55.95;;;16.60;68.60;;;;;;4885400;28;94068;-42
2024/01/01 05:13:59;;;;;;;124.72;55.35;;;16.60;68.60;;;;;;4888379;28;89675;-42
2024/01/01 05:16:25;;;;;;;126.10;55.33;;;16.50;68.60;;;;;;4888242;28;89440;-42
2024/01/01 05:18:51;;;;;;;124.63;55.92;;;16.50;68.50;;;;;;4885237;28;89621;-43
2024/01/01 05:21:16;;;;;;;127.15;55.80;;;16.50;68.30;;;;;;4881799;28;88463;-42
2024/01/01 05:23:42;;;;;;;125.50;55.58;;;16.50;68.50;;;;;;4885556;28;89182;-43
2024/01/01 05:26:08;;;;;;;125.32;55.70;;;16.50;68.60;;;;;;4882380;28;89625;-42
2024/01/01 05:28:33;;;;;;;123.57;55.45;;;16.50;68.70;;;;;;4882708;28;91411;-42
2024/01/01 05:30:59;;;;;;;125.45;55.42;;;16.50;68.60;;;;;;4883228;28;89224;-43
2024/01/01 05:33:24;;;;;;;124.97;55.75;;;16.50;68.70;;;;;;4883149;28;89441;-43
2024/01/01 05:35:50;;;;;;;127.13;56.05;;;16.50;68.50;;;;;;4881116;28;89718;-42
2024/01/01 05:38:17;;;;;;;125.78;55.83;;;16.40;68.50;;;;;;4884709;28;89412;-43
2024/01/01 05:40:44;;;;;;;126.32;56.25;;;16.50;68.60;;;;;;4879737;28;89324;-42
2024/01/01 05:43:10;;;;;;;125.50;55.65;;;16.40;68.50;;;;;;4884842;28;89406;-44
2024/01/01 05:45:35;;;;;;;125.20;55.78;;;16.50;68.70;;;;;;4883796;28;88742;-44
2024/01/01 05:48:01;;;;;;;123.35;55.00;;;16.50;68.50;;;;;;4883147;28;88980;-44
2024/01/01 05:50:28;;;;;;;124.25;55.42;;;16.40;68.50;;;;;;4886847;28;89571;-42
2024/01/01 05:52:54;;;;;;;125.85;55.28;;;16.40;68.50;;;;;;4882163;28;90726;-43
2024/01/01 05:55:19;;;;;;;127.15;56.15;;;16.30;68.40;;;;;;4885226;28;90630;-42
2024/01/01 05:57:45;;;;;;;125.85;55.78;;;16.30;68.40;;;;;;4881445;28;89683;-44
2024/01/01 06:00:12;;;;;;;125.35;55.63;;;16.40;68.50;;;;;;4885128;28;89645;-43
2024/01/01 06:02:38;;;;;;;124.03;55.58;;;16.40;68.70;;;;;;4884266;28;89775;-42
2024/01/01 06:05:04;;;;;;;124.88;55.70;;;16.40;68.60;;;;;;4886987;28;89846;-44
2024/01/01 06:07:30;;;;;;;125.30;55.80;;;16.30;69.30;;;;;;4879782;28;90035;-43
2024/01/01 06:09:57;;;;;;;122.85;55.00;;;16.30;68.60;;;;;;4882027;28;88658;-42
2024/01/01 06:12:23;;;;;;;126.07;55.92;;;16.40;68.60;;;;;;4887023;28;89599;-42
2024/01/01 06:14:50;;;;;;;125.57;55.55;;;16.30;68.40;;;;;;4884333;28;89680;-42
2024/01/01 06:17:16;;;;;;;124.88;55.38;;;16.30;68.70;;;;;;4882429;28;92105;-42
2024/01/01 06:19:42;;;;;;;124.70;55.58;;;16.30;68.50;;;;;;4886273;28;89413;-42
2024/01/01 06:22:08;;;;;;;123.95;55.58;;;16.20;68.50;;;;;;4882536;28;89265;-43
2024/01/01 06:24:33;;;;;;;124.32;55.55;;;16.30;68.70;;;;;;4887231;28;89286;-42
2024/01/01 06:26:59;;;;;;;126.07;55.47;;;16.30;68.70;;;;;;4883736;28;88980;-42
2024/01/01 06:29:27;;;;;;;124.25;55.47;;;16.20;68.20;;;;;;4884754;28;89398;-43
2024/01/01 06:31:53;;;;;;;126.38;55.63;;;16.20;68.50;;;;;;4884178;28;88988;-42
2024/01/01 06:34:19;;;;;;;125.20;55.58;;;16.20;68.60;;;;;;4877672;28;89961;-42
2024/01/01 06:36:45;;;;;;;123.38;55.25;;;16.20;68.70;;;;;;4890228;28;89254;-43
2024/01/01 06:39:11;;;;;;;124.65;55.40;;;16.20;68.50;;;;;;4882158;28;89278;-43
2024/01/01 06:41:36;;;;;;;125.57;55.83;;;16.20;68.70;;;;;;4882216;28;91310;-44
2024/01/01 06:44:08;;;;;;;125.65;55.58;;;16.20;68.80;;;;;;4881526;28;90040;-43
2024/01/01 06:46:34;;;;;;;124.38;55.53;;;16.20;68.80;;;;;;4880587;28;89370;-44
2024/01/01 06:49:00;;;;;;;124.78;55.58;;;16.20;68.60;;;;;;4880358;28;89692;-42
2024/01/01 06:51:25;;;;;;;125.95;55.50;;;16.20;69.00;;;;;;4878606;28;90974;-42
2024/01/01 06:53:51;;;;;;;125.53;55.70;;;16.20;68.80;;;;;;4883405;28;89459;-43
2024/01/01 06:56:17;;;;;;;125.20;55.40;;;16.10;68.90;;;;;;4880625;28;89325;-42
2024/01/01 06:58:42;;;;;;;124.57;55.45;;;16.10;69.00;;;;;;4880567;28;88966;-42
2024/01/01 07:01:08;;;;;;;124.30;55.22;;;16.10;69.10;;;;;;4874262;28;91196;-42
2024/01/01 07:03:34;;;;;;;125.88;55.28;;;16.20;69.10;;;;;;4882063;28;89578;-42
2024/01/01 07:05:59;;;;;;;124.78;55.65;;;16.10;69.00;;;;;;4882157;28;90543;-42
2024/01/01 07:08:25;;;;;;;124.47;55.28;;;16.10;69.00;;;;;;4882580;28;89671;-42
2024/01/01 07:10:51;;;;;;;127.20;55.33;;;16.10;69.20;;;;;;4880356;28;89671;-42
2024/01/01 07:13:17;;;;;;;124.28;55.17;;;16.10;69.30;;;;;;4883390;28;89667;-42
2024/01/01 07:15:43;;;;;;;127.18;55.75;;;16.10;69.20;;;;;;4879270;28;89723;-42
2024/01/01 07:18:09;;;;;;;125.90;55.63;;;16.10;69.00;;;;;;4882485;28;89079;-42
2024/01/01 07:20:35;;;;;;;124.13;55.45;;;16.10;69.20;;;;;;4878644;28;89705;-42
2024/01/01 07:23:01;;;;;;;123.78;55.20;;;16.00;69.30;;;;;;4878321;28;89233;-43
2024/01/01 07:25:26;;;;;;;123.82;55.28;;;16.00;69.30;;;;;;4881549;28;94230;-42
2024/01/01 07:27:53;;;;;;;127.00;55.60;;;16.10;69.30;;;;;;4885529;28;89625;-42
2024/01/01 07:30:19;;;;;;;125.05;55.15;;;16.00;69.30;;;;;;4882690;28;91103;-42
2024/01/01 07:32:45;;;;;;;124.55;55.13;;;16.00;69.30;;;;;;4880515;28;89912;-42
2024/01/01 07:35:11;;;;;;;123.93;55.60;;;16.10;69.40;;;;;;4884872;28;89155;-42
2024/01/01 07:37:37;;;;;;;126.82;55.42;;;16.00;69.20;;;;;;4882874;28;89451;-45
2024/01/01 07:40:03;;;;;;;124.03;55.17;;;16.00;69.30;;;;;;4883175;28;89920;-42
2024/01/01 07:42:29;;;;;;;123.40;54.97;;;16.00;69.20;;;;;;4874723;28;89590;-41
2024/01/01 07:44:55;;;;;;;122.70;54.88;;;16.00;69.50;;;;;;4878451;28;89254;-45
2024/01/01 07:47:20;;;;;;;123.97;55.38;;;16.00;69.50;;;;;;4883170;28;88542;-42
2024/01/01 07:49:46;;;;;;;124.10;55.45;;;16.00;69.40;;;;;;4879911;28;89248;-43
2024/01/01 07:52:14;;;;;;;124.57;55.55;;;16.00;69.40;;;;;;4873243;28;89885;-45
2024/01/01 07:54:40;;;;;;;125.10;55.33;;;16.00;69.50;;;;;;4881911;28;90164;-42
2024/01/01 07:57:06;;;;;;;125.75;55.47;;;16.00;69.50;;;;;;4878160;28;89343;-42
2024/01/01 07:59:33;;;;;;;124.25;55.47;;;16.00;69.40;;;;;;4878050;28;89480;-42
2024/01/01 08:01:59;;;;;;;123.00;55.30;;;16.00;69.50;;;;;;4878892;28;89496;-43
2024/01/01 08:04:26;;;;;;;127.25;55.70;;;16.00;69.50;;;;;;4877247;28;90245;-45
2024/01/01 08:06:52;;;;;;;124.97;55.80;;;16.00;69.60;;;;;;4882732;28;89530;-42
2024/01/01 08:09:17;;;;;;;127.18;55.78;;;16.00;69.40;;;;;;4880365;28;90406;-42
2024/01/01 08:11:43;;;;;;;124.93;55.45;;;15.90;69.40;;;;;;4879874;28;89010;-42
2024/01/01 08:14:09;;;;;;;122.28;54.95;;;15.90;69.40;;;;;;4881890;28;89526;-43
2024/01/01 08:16:34;;;;;;;124.25;54.83;;;15.90;69.30;;;;;;4881060;28;90723;-42
2024/01/01 08:19:00;;;;;;;123.70;55.10;;;15.90;69.40;;;;;;4884537;28;90481;-39
2024/01/01 08:21:26;;;;;;;124.00;55.55;;;15.90;69.40;;;;;;4880208;28;91544;-43
2024/01/01 08:23:53;;;;;;;126.35;54.88;;;15.90;69.50;;;;;;4885927;28;89900;-40
2024/01/01 08:26:18;;;;;;;126.97;55.10;;;15.90;69.60;;;;;;4875311;28;89511;-40
2024/01/01 08:28:51;;;;;;;124.50;54.97;;;15.90;69.50;;;;;;4880669;28;90103;-41
2024/01/01 08:31:20;;;;;;;124.10;55.17;;;15.90;69.50;;;;;;4875690;28;90482;-42
2024/01/01 08:33:46;;;;;;;123.82;55.15;;;15.90;69.40;;;;;;4879916;28;89245;-39
2024/01/01 08:36:12;;;;;;;126.55;55.50;;;15.90;69.50;;;;;;4880177;28;89529;-42
2024/01/01 08:38:38;;;;;;;124.35;55.30;;;15.80;69.40;;;;;;4883039;28;89930;-41
2024/01/01 08:41:03;;;;;;;126.00;55.53;;;15.90;69.60;;;;;;4877488;28;90031;-41
2024/01/01 08:43:29;;;;;;;125.60;55.28;;;15.90;69.70;;;;;;4879651;28;90403;-44
2024/01/01 08:45:55;;;;;;;126.95;55.58;;;15.90;69.70;;;;;;4880029;28;89824;-42
2024/01/01 08:48:21;;;;;;;123.60;54.65;;;15.90;69.70;;;;;;4879358;28;89012;-41
2024/01/01 08:50:46;;;;;;;123.40;54.60;;;15.90;69.60;;;;;;4877748;28;90029;-43
2024/01/01 08:53:12;;;;;;;126.88;55.22;;;15.90;69.60;;;;;;4879222;28;89344;-42
2024/01/01 08:55:38;;;;;;;129.35;55.17;;;15.90;69.70;;;;;;4882566;28;89909;-41
2024/01/01 08:58:05;;;;;;;125.03;55.35;;;15.90;69.60;;;;;;4882883;28;89517;-41
2024/01/01 09:00:30;;;;;;;124.55;55.38;;;15.80;69.60;;;;;;4876094;28;89831;-42
2024/01/01 09:02:56;;;;;;;125.18;54.95;;;15.80;69.70;;;;;;4880218;28;89928;-41
2024/01/01 09:05:22;;;;;;;125.47;54.97;;;15.80;69.40;;;;;;4885177;28;89659;-41
2024/01/01 09:07:47;;;;;;;125.22;54.88;;;15.80;69.80;;;;;;4878887;28;90520;-41
2024/01/01 09:10:15;;;;;;;124.00;55.38;;;15.80;69.50;;;;;;4879082;28;89888;-41
2024/01/01 09:12:41;;;;;;;123.43;55.33;;;15.80;69.80;;;;;;4874214;28;89426;-41
2024/01/01 09:15:07;;;;;;;122.18;55.15;;;15.80;69.80;;;;;;4883763;28;89560;-43
2024/01/01 09:17:34;;;;;;;128.48;55.80;;;15.80;70.00;;;;;;4881433;28;89460;-41
2024/01/01 09:19:59;;;;;;;123.63;55.10;;;15.80;70.00;;;;;;4879489;28;89809;-42
2024/01/01 09:22:25;;;;;;;126.38;55.17;;;15.80;69.80;;;;;;4881168;28;89664;-41
2024/01/01 09:24:51;;;;;;;130.48;55.10;;;15.80;69.80;;;;;;4880290;28;89064;-41
2024/01/01 09:27:16;;;;;;;126.80;55.92;;;15.80;70.00;;;;;;4882072;28;89454;-41
2024/01/01 09:29:42;;;;;;;125.70;55.65;;;15.80;69.90;;;;;;4884420;28;89610;-41
2024/01/01 09:32:08;;;;;;;125.82;55.65;;;15.80;70.00;;;;;;4882071;28;90683;-42
2024/01/01 09:34:33;;;;;;;127.20;55.85;;;15.80;70.00;;;;;;4881992;28;94406;-41
2024/01/01 09:36:59;;;;;;;124.78;55.88;;;15.80;69.90;;;;;;4880188;28;89690;-43
2024/01/01 09:39:25;;;;;;;124.22;55.55;;;15.80;70.00;;;;;;4882774;28;89224;-41
2024/01/01 09:41:52;;;;;;;122.88;55.25;;;15.80;70.00;;;;;;4881758;28;89845;-40
2024/01/01 09:44:17;;;;;;;124.55;55.88;;;15.80;70.10;;;;;;4878124;28;89212;-44
2024/01/01 09:46:45;;;;;;;125.47;55.65;;;15.80;70.10;;;;;;4878637;28;90300;-44
2024/01/01 09:49:11;;;;;;;129.82;55.63;;;15.70;70.00;;;;;;4886643;28;88751;-41
2024/01/01 09:51:39;;;;;;;123.93;55.55;;;15.80;70.20;;;;;;4878488;28;89977;-41
2024/01/01 09:54:07;;;;;;;125.05;55.17;;;15.80;70.00;;;;;;4884256;28;89290;-42
2024/01/01 09:56:32;;;;;;;127.20;55.30;;;15.80;70.10;;;;;;4880585;28;90240;-42
2024/01/01 09:58:58;;;;;;;125.15;55.72;;;15.80;70.10;;;;;;4879106;28;89856;-40
2024/01/01 10:01:24;;;;;;;124.20;55.67;;;15.80;70.20;;;;;;4882520;28;89563;-41
2024/01/01 10:04:03;;;;;;;124.00;55.13;;;15.80;70.00;;;;;;4877744;28;90119;-42
2024/01/01 10:06:30;;;;;;;125.53;55.80;;;15.80;70.00;;;;;;4878594;28;90073;-41
2024/01/01 10:09:08;;;;;;;126.70;55.83;;;15.80;70.10;;;;;;4878621;28;89889;-41
2024/01/01 10:11:35;;;;;;;125.97;55.47;;;15.70;70.10;;;;;;4879826;28;89152;-42
2024/01/01 10:14:05;;;;;;;122.57;55.28;;;15.70;70.10;;;;;;4880859;28;89068;-41
2024/01/01 10:16:31;;;;;;;124.30;55.22;;;15.70;70.10;;;;;;4884210;28;89434;-41
2024/01/01 10:18:58;;;;;;;125.15;55.85;;;15.70;70.20;;;;;;4881578;28;89450;-42
2024/01/01 10:21:31;;;;;;;124.97;55.60;;;15.80;70.20;;;;;;4876694;28;91110;-41
2024/01/01 10:23:58;;;;;;;124.88;56.25;;;15.80;70.10;;;;;;4880604;28;89328;-42
2024/01/01 10:26:24;;;;;;;125.28;55.28;;;15.80;70.20;;;;;;4877634;28;90773;-42
2024/01/01 10:28:50;;;;;;;125.95;55.72;;;15.70;70.10;;;;;;4877256;28;90062;-42
2024/01/01 10:31:16;;;;;;;124.20;55.67;;;15.70;70.80;;;;;;4883224;28;89313;-41
2024/01/01 10:33:44;;;;;;;125.43;56.05;;;15.70;70.70;;;;;;4880534;28;89162;-42
2024/01/01 10:36:12;;;;;;;127.85;56.08;;;15.80;70.70;;;;;;4876821;28;89941;-41
2024/01/01 10:38:39;;;;;;;126.45;55.72;;;15.80;71.30;;;;;;4879129;28;89399;-42
2024/01/01 10:41:07;;;;;;;125.55;56.00;;;15.80;71.80;;;;;;4878299;28;90408;-42
2024/01/01 10:43:35;;;;;;;128.75;56.25;;;15.80;72.10;;;;;;4879043;28;89373;-42
2024/01/01 10:46:03;;;;;;;130.75;56.42;;;15.80;72.40;;;;;;4877220;28;90776;-44
2024/01/01 10:48:33;;;;;;;128.57;55.72;;;15.90;73.20;;;;;;4874961;28;90947;-43
2024/01/01 10:51:24;;;;;;;127.97;56.22;;;15.80;73.10;;;;;;4870565;28;90370;-42
2024/01/01 10:54:09;;;;;;;124.88;55.38;;;15.80;72.70;;;;;;4876046;28;89269;-44
2024/01/01 10:57:21;;;;;;;129.50;55.95;;;15.80;73.40;;;;;;4874652;28;94114;-43
2024/01/01 11:00:10;;;;;;;;;;;15.90;73.70;;;;;;4870094;28;90068;-43
2024/01/01 11:02:36;;;;;;;127.82;55.63;;;16.00;73.90;;;;;;4880212;28;89087;-43
2024/01/01 11:05:10;;;;;;;125.97;55.85;;;16.10;74.10;;;;;;4872917;28;88497;-44
2024/01/01 11:07:54;;;;;;;132.23;56.35;;;16.10;74.10;;;;;;4877723;28;89536;-44
2024/01/01 11:10:40;;;;;;;126.85;56.28;;;16.20;74.00;;;;;;4868958;28;89550;-44
2024/01/01 11:13:10;;;;;;;130.25;56.70;;;16.20;75.10;;;;;;4870333;28;94874;-42
2024/01/01 11:15:44;;;;;;;129.10;56.85;;;16.20;74.40;;;;;;4875492;28;90477;-42
2024/01/01 11:18:18;;;;;;;138.60;56.35;;;16.20;74.90;;;;;;4873306;28;89542;-42
2024/01/01 11:20:55;;;;;;;129.82;56.58;;;16.30;74.00;;;;;;4873907;28;89068;-41
2024/01/01 11:23:40;;;;;;;132.98;56.42;;;16.20;73.80;;;;;;4873852;28;91226;-43
2024/01/01 11:26:25;;;;;;;128.52;56.40;;;16.30;73.70;;;;;;4871704;28;90508;-42
2024/01/01 11:28:52;;;;;;;129.70;56.65;;;16.30;73.40;;;;;;4873891;28;89426;-44
2024/01/01 11:31:18;;;;;;;134.82;56.40;;;16.30;73.80;;;;;;4879119;28;89625;-44
2024/01/01 11:33:44;;;;;;;129.27;56.47;;;16.30;73.70;;;;;;4880296;28;90321;-42
2024/01/01 11:36:09;;;;;;;130.93;56.38;;;16.30;73.50;;;;;;4874502;28;89103;-43
2024/01/01 11:38:38;;;;;;;140.48;57.00;;;16.30;73.00;;;;;;4872314;28;91457;-41
2024/01/01 11:41:04;;;;;;;135.07;56.83;;;16.30;72.90;;;;;;4871073;28;89754;-44
2024/01/01 11:43:30;;;;;;;137.13;56.65;;;16.30;73.00;;;;;;4881109;28;89237;-43
2024/01/01 11:46:02;;;;;;;139.77;57.10;;;16.30;73.60;;;;;;4871627;28;89451;-42
2024/01/01 11:48:28;;;;;;;135.13;56.22;;;16.30;73.10;;;;;;4879878;28;89682;-42
2024/01/01 11:50:59;;;;;;;147.70;57.42;;;16.30;72.80;;;;;;4873310;28;89462;-43
2024/01/01 11:53:24;;;;;;;132.95;56.67;;;16.30;73.10;;;;;;4873383;28;90986;-45
2024/01/01 11:55:50;;;;;;;140.95;57.13;;;16.30;73.10;;;;;;4873014;28;88994;-42
2024/01/01 11:58:17;;;;;;;135.82;56.80;;;16.30;73.40;;;;;;4872001;28;89802;-42
2024/01/01 12:00:43;;;;;;;137.60;56.92;;;16.30;73.40;;;;;;4875433;28;91046;-43
2024/01/01 12:03:09;;;;;;;134.93;57.38;;;16.30;73.40;;;;;;4877152;28;90270;-43
2024/01/01 12:05:34;;;;;;;136.23;57.22;;;16.30;73.00;;;;;;4874351;28;90088;-48
2024/01/01 12:08:12;;;;;;;147.88;57.47;;;16.30;72.70;;;;;;4877029;28;89175;-45
2024/01/01 12:10:37;;;;;;;135.90;56.50;;;16.30;72.80;;;;;;4878110;28;89989;-44
2024/01/01 12:13:03;;;;;;;133.77;57.35;;;16.30;72.40;;;;;;4873626;28;89425;-43
2024/01/01 12:15:32;;;;;;;132.68;56.90;;;16.30;72.30;;;;;;4880020;28;94259;-42
2024/01/01 12:17:59;;;;;;;130.00;56.67;;;16.30;72.20;;;;;;4880490;28;89385;-44